Grandeur Of The Seas — C6SE3 — position and weather

sailwx.info

Track history (hours):
 
Tides and Currents Weather Stations Pressure Air Temp Water Temp Dewpoint Dewpoint Depression Visibility Wind Speed Wind Dir Waves Ship Positions

Grandeur Of The Seas

Operator: Royal Caribbean Cruises Ltd

Last reported at 2016-Apr-28 06:23 UTC. Time now 2016-Apr-28 19:52 UTC.
Position N 36°49' W 075°48'.

MMSI: 311315000.

Date/timePositionNaut miles runAvg speedWind from/ knotsBaromVisibWave heightAir tempDewpointWater temp
2016-Apr-28 06:23N 36°49' W 075°48'810.1
2016-Apr-28 05:33N 36°55' W 075°56'6315.7
2016-Apr-28 01:33N 37°57' W 076°10'5618.5
2016-Apr-27 22:33N 38°51' W 076°24'1616.1
2016-Apr-27 21:33N 39°07' W 076°24'1211.5
2016-Apr-27 20:33N 39°15' W 076°34'1 1.4
2016-Apr-27 19:32N 39°16' W 076°36'0 0.0
2016-Apr-27 18:32N 39°16' W 076°36'0 0.0
2016-Apr-27 17:32N 39°16' W 076°36'0 0.0
2016-Apr-27 16:32N 39°16' W 076°36'0 0.0
2016-Apr-27 15:32N 39°16' W 076°36'0 0.0
2016-Apr-27 14:32N 39°16' W 076°36'0 0.0
2016-Apr-27 13:31N 39°16' W 076°36'0 0.0
2016-Apr-27 12:31N 39°16' W 076°36'0 0.0
2016-Apr-27 11:31N 39°16' W 076°36'0 0.2
2016-Apr-27 10:33N 39°16' W 076°36'8 7.7
2016-Apr-27 09:33N 39°11' W 076°28'1313.4
2016-Apr-27 08:34N 38°58' W 076°23'4714.7
2016-Apr-27 05:23N 38°12' W 076°14'1315.7
2016-Apr-27 04:32N 37°59' W 076°11'5516.4
2016-Apr-27 01:12N 37°04' W 076°06'1015.0
2016-Apr-27 00:33N 36°57' W 075°58'10 9.9
2016-Apr-26 23:33N 36°51' W 075°48'  
2016-Apr-21 22:12N 20°39' W 086°49'1117.5
2016-Apr-21 21:33N 20°33' W 086°58'4 3.5
2016-Apr-21 20:29N 20°29' W 086°59'0 0.0
2016-Apr-21 19:32N 20°29' W 086°59'0 0.0
2016-Apr-21 18:32N 20°29' W 086°59'0 0.0
2016-Apr-21 17:32N 20°29' W 086°59'0 0.0
2016-Apr-21 16:32N 20°29' W 086°59'0 0.0
2016-Apr-21 15:32N 20°29' W 086°59'0 0.0
2016-Apr-21 14:32N 20°29' W 086°59'0 0.0
2016-Apr-21 13:29N 20°29' W 086°59'0 0.0
2016-Apr-21 12:32N 20°29' W 086°59'0 0.1
2016-Apr-21 11:33N 20°29' W 086°59'10 9.7
2016-Apr-21 10:33N 20°38' W 086°54'29515.1
2016-Apr-20 15:00N 23°30' W 082°36'18014.5 140 / 171016.010.8 0.524.019.628.0
2016-Apr-20 02:33N 25°21' W 080°00'1818.1
2016-Apr-20 01:33N 25°39' W 079°56'1716.6
2016-Apr-20 00:34N 25°55' W 079°51'1615.7
2016-Apr-19 23:34N 26°11' W 079°50'1615.8
2016-Apr-19 22:33N 26°26' W 079°50'1615.9
2016-Apr-19 21:33N 26°42' W 079°49'1616.1
2016-Apr-19 20:33N 26°58' W 079°51'43417.2
2016-Apr-18 19:19N 33°44' W 076°51'2119.0
2016-Apr-18 18:14N 33°59' W 076°34'1318.7
2016-Apr-18 17:33N 34°08' W 076°24'2019.4
2016-Apr-18 16:33N 34°22' W 076°07'14215.8
2016-Apr-18 07:31N 36°43' W 075°42'1010.5
2016-Apr-18 06:34N 36°51' W 075°50'  
Track history (hours):
 
Tides and Currents Weather Stations Pressure Air Temp Water Temp Dewpoint Dewpoint Depression Visibility Wind Speed Wind Dir Waves Ship Positions

Grandeur Of The Seas

Operator: Royal Caribbean Cruises Ltd

Last reported at 2016-Apr-28 06:23 UTC. Time now 2016-Apr-28 19:52 UTC.
Position N 36°49' W 075°48'.

MMSI: 311315000.

Date/timePositionNaut miles runAvg speedWind from/ knotsBaromVisibWave heightAir tempDewpointWater temp
2016-Apr-28 06:23N 36°49' W 075°48'810.1
2016-Apr-28 05:33N 36°55' W 075°56'6315.7
2016-Apr-28 01:33N 37°57' W 076°10'5618.5
2016-Apr-27 22:33N 38°51' W 076°24'1616.1
2016-Apr-27 21:33N 39°07' W 076°24'1211.5
2016-Apr-27 20:33N 39°15' W 076°34'1 1.4
2016-Apr-27 19:32N 39°16' W 076°36'0 0.0
2016-Apr-27 18:32N 39°16' W 076°36'0 0.0
2016-Apr-27 17:32N 39°16' W 076°36'0 0.0
2016-Apr-27 16:32N 39°16' W 076°36'0 0.0
2016-Apr-27 15:32N 39°16' W 076°36'0 0.0
2016-Apr-27 14:32N 39°16' W 076°36'0 0.0
2016-Apr-27 13:31N 39°16' W 076°36'0 0.0
2016-Apr-27 12:31N 39°16' W 076°36'0 0.0
2016-Apr-27 11:31N 39°16' W 076°36'0 0.2
2016-Apr-27 10:33N 39°16' W 076°36'8 7.7
2016-Apr-27 09:33N 39°11' W 076°28'1313.4
2016-Apr-27 08:34N 38°58' W 076°23'4714.7
2016-Apr-27 05:23N 38°12' W 076°14'1315.7
2016-Apr-27 04:32N 37°59' W 076°11'5516.4
2016-Apr-27 01:12N 37°04' W 076°06'1015.0
2016-Apr-27 00:33N 36°57' W 075°58'10 9.9
2016-Apr-26 23:33N 36°51' W 075°48'  
2016-Apr-21 22:12N 20°39' W 086°49'1117.5
2016-Apr-21 21:33N 20°33' W 086°58'4 3.5
2016-Apr-21 20:29N 20°29' W 086°59'0 0.0
2016-Apr-21 19:32N 20°29' W 086°59'0 0.0
2016-Apr-21 18:32N 20°29' W 086°59'0 0.0
2016-Apr-21 17:32N 20°29' W 086°59'0 0.0
2016-Apr-21 16:32N 20°29' W 086°59'0 0.0
2016-Apr-21 15:32N 20°29' W 086°59'0 0.0
2016-Apr-21 14:32N 20°29' W 086°59'0 0.0
2016-Apr-21 13:29N 20°29' W 086°59'0 0.0
2016-Apr-21 12:32N 20°29' W 086°59'0 0.1
2016-Apr-21 11:33N 20°29' W 086°59'10 9.7
2016-Apr-21 10:33N 20°38' W 086°54'29515.1
2016-Apr-20 15:00N 23°30' W 082°36'18014.5 140 / 171016.010.8 0.524.019.628.0
2016-Apr-20 02:33N 25°21' W 080°00'1818.1
2016-Apr-20 01:33N 25°39' W 079°56'1716.6
2016-Apr-20 00:34N 25°55' W 079°51'1615.7
2016-Apr-19 23:34N 26°11' W 079°50'1615.8
2016-Apr-19 22:33N 26°26' W 079°50'1615.9
2016-Apr-19 21:33N 26°42' W 079°49'1616.1
2016-Apr-19 20:33N 26°58' W 079°51'43417.2
2016-Apr-18 19:19N 33°44' W 076°51'2119.0
2016-Apr-18 18:14N 33°59' W 076°34'1318.7
2016-Apr-18 17:33N 34°08' W 076°24'2019.4
2016-Apr-18 16:33N 34°22' W 076°07'14215.8
2016-Apr-18 07:31N 36°43' W 075°42'1010.5
2016-Apr-18 06:34N 36°51' W 075°50'  

Dump ship's entire track history